Time;durP1;ratioP1;P1;durP2;ratioP2;P2;SDS_P1;SDS_P2;PMS_P1;PMS_P2;Temp;Humidity;BMP_temperature;BMP_pressure;BME280_temperature;BME280_humidity;BME280_pressure;Samples;Min_cycle;Max_cycle;Signal;HPM_P1;HPM_P2
2021/06/26 00:00:52;;;;;;;;;9.00;7.00;;;;;18.59;69.23;101293.66;4941993;28;45684;-54
2021/06/26 00:03:19;;;;;;;;;7.00;5.00;;;;;18.59;69.09;101297.22;4943662;28;46084;-54
2021/06/26 00:05:45;;;;;;;;;6.75;5.75;;;;;18.58;69.14;101291.94;4943454;28;45377;-54
2021/06/26 00:08:10;;;;;;;;;6.00;6.00;;;;;18.60;69.13;101300.72;4943343;28;45278;-53
2021/06/26 00:10:36;;;;;;;;;6.50;6.00;;;;;18.58;69.25;101295.47;4943602;28;45353;-52
2021/06/26 00:13:02;;;;;;;;;7.00;5.75;;;;;18.59;68.92;101297.22;4943259;28;46227;-53
2021/06/26 00:15:27;;;;;;;;;6.50;6.50;;;;;18.61;68.93;101292.69;4943312;28;45437;-53
2021/06/26 00:17:52;;;;;;;;;8.00;6.25;;;;;18.61;69.15;101297.16;4943483;28;45282;-54
2021/06/26 00:20:18;;;;;;;;;9.75;6.75;;;;;18.59;69.03;101299.88;4943324;28;45186;-53
2021/06/26 00:22:43;;;;;;;;;7.50;7.00;;;;;18.61;69.10;101300.66;4943507;28;45628;-53
2021/06/26 00:25:09;;;;;;;;;6.00;6.00;;;;;18.60;69.28;101298.06;4943296;28;45368;-53
2021/06/26 00:27:35;;;;;;;;;5.75;5.00;;;;;18.59;68.93;101306.97;4943186;28;45311;-51
2021/06/26 00:30:00;;;;;;;;;7.25;7.25;;;;;18.56;69.25;101299.13;4942987;28;45448;-53
2021/06/26 00:32:26;;;;;;;;;9.00;8.00;;;;;18.52;69.16;101299.22;4943035;28;46196;-53
2021/06/26 00:34:51;;;;;;;;;6.75;6.75;;;;;18.55;69.12;101294.72;4941755;28;46207;-55
2021/06/26 00:37:17;;;;;;;;;7.25;7.25;;;;;18.54;69.16;101295.66;4942977;28;45341;-53
2021/06/26 00:39:42;;;;;;;;;10.50;8.00;;;;;18.52;69.20;101299.22;4941773;28;45337;-53
2021/06/26 00:42:08;;;;;;;;;9.00;7.75;;;;;18.49;68.83;101298.50;4942634;28;46329;-52
2021/06/26 00:44:33;;;;;;;;;11.00;7.25;;;;;18.50;69.04;101292.22;4942999;28;45290;-51
2021/06/26 00:47:05;;;;;;;;;8.50;7.50;;;;;18.49;68.83;101294.03;4943005;28;45257;-53
2021/06/26 00:49:30;;;;;;;;;10.25;7.75;;;;;18.51;69.10;101296.63;4925879;28;45235;-54
2021/06/26 00:51:56;;;;;;;;;12.00;8.50;;;;;18.49;69.15;101290.53;4942897;28;46288;-52
2021/06/26 00:54:21;;;;;;;;;8.75;7.50;;;;;18.50;69.02;101297.56;4942859;28;45392;-55
2021/06/26 00:56:47;;;;;;;;;8.00;8.00;;;;;18.51;68.99;101288.66;4941295;28;45845;-54
2021/06/26 00:59:13;;;;;;;;;8.50;6.50;;;;;18.43;68.91;101269.47;4939993;28;45291;-52
2021/06/26 01:01:38;;;;;;;;;9.50;8.00;;;;;18.51;68.80;101278.88;4931556;28;46325;-54
2021/06/26 01:04:04;;;;;;;;;7.75;7.75;;;;;18.50;68.66;101278.94;4955736;28;45483;-54
2021/06/26 01:06:29;;;;;;;;;9.50;9.50;;;;;18.50;68.83;101274.50;4941362;28;45288;-54
2021/06/26 01:08:55;;;;;;;;;11.00;11.00;;;;;18.51;68.78;101267.34;4941083;28;46277;-54
2021/06/26 01:11:20;;;;;;;;;9.75;9.75;;;;;18.50;68.69;101265.63;4942794;28;45349;-53
2021/06/26 01:13:45;;;;;;;;;11.25;9.50;;;;;18.49;68.65;101258.59;4942084;28;45247;-53
2021/06/26 01:16:11;;;;;;;;;12.00;10.00;;;;;18.50;68.48;101255.88;4942854;28;45355;-51
2021/06/26 01:18:36;;;;;;;;;8.00;8.00;;;;;18.48;68.75;101255.03;4942676;28;45272;-54
2021/06/26 01:21:01;;;;;;;;;11.00;10.00;;;;;18.49;68.75;101256.78;4942317;28;45375;-52
2021/06/26 01:23:27;;;;;;;;;10.00;9.25;;;;;18.48;68.68;101260.38;4942440;28;45179;-53
2021/06/26 01:25:52;;;;;;;;;9.00;7.75;;;;;18.49;68.57;101258.59;4942651;28;45409;-54
2021/06/26 01:28:18;;;;;;;;;7.75;7.75;;;;;18.48;68.39;101252.38;4942082;28;45336;-54
2021/06/26 01:30:43;;;;;;;;;12.50;10.50;;;;;18.48;68.77;101255.03;4942051;28;45437;-53
2021/06/26 01:33:09;;;;;;;;;10.00;9.00;;;;;18.49;68.61;101251.47;4937605;28;45524;-54
2021/06/26 01:35:34;;;;;;;;;11.75;8.25;;;;;18.50;68.41;101252.31;4942629;28;45402;-52
2021/06/26 01:38:01;;;;;;;;;11.75;8.25;;;;;18.51;68.45;101254.06;4942148;28;45307;-53
2021/06/26 01:40:28;;;;;;;;;9.50;9.00;;;;;18.51;68.35;101257.59;4942196;28;46225;-53
2021/06/26 01:42:55;;;;;;;;;11.25;9.00;;;;;18.51;68.21;101257.59;4941729;28;45347;-51
2021/06/26 01:45:22;;;;;;;;;9.75;9.25;;;;;18.51;68.78;101254.94;4942217;28;45318;-53
2021/06/26 01:47:55;;;;;;;;;9.00;7.75;;;;;18.52;68.44;101259.31;4941882;28;45536;-53
2021/06/26 01:50:22;;;;;;;;;12.50;11.50;;;;;18.52;68.38;101259.31;4941015;28;46140;-52
2021/06/26 01:52:48;;;;;;;;;9.50;8.00;;;;;18.52;68.42;101254.00;4941954;28;45250;-54
2021/06/26 01:55:16;;;;;;;;;11.50;10.25;;;;;18.54;68.49;101255.72;4942093;28;45231;-54
2021/06/26 01:57:43;;;;;;;;;11.00;10.00;;;;;18.55;68.44;101249.47;4941519;28;45270;-53
2021/06/26 02:00:10;;;;;;;;;10.50;9.50;;;;;18.55;68.45;101247.69;4932872;28;45412;-53
2021/06/26 02:02:36;;;;;;;;;8.50;8.50;;;;;18.55;68.64;101241.50;4937759;28;45314;-51
2021/06/26 02:05:03;;;;;;;;;11.00;9.25;;;;;18.56;68.62;101240.56;4941953;28;45353;-53
2021/06/26 02:07:28;;;;;;;;;10.75;8.75;;;;;18.57;68.63;101247.63;4941427;28;45393;-52
2021/06/26 02:09:53;;;;;;;;;9.25;9.00;;;;;18.57;68.49;101244.97;4941644;28;46200;-52
2021/06/26 02:12:19;;;;;;;;;10.25;10.25;;;;;18.58;68.14;101252.00;4941467;28;45207;-53
2021/06/26 02:14:44;;;;;;;;;13.25;10.25;;;;;18.56;68.58;101252.06;4956717;28;45198;-53
2021/06/26 02:17:10;;;;;;;;;12.00;12.00;;;;;18.60;68.54;101253.72;4941600;28;45235;-51
2021/06/26 02:19:35;;;;;;;;;10.75;10.75;;;;;18.61;68.39;101246.59;4941615;28;45330;-53
2021/06/26 02:22:01;;;;;;;;;12.50;11.00;;;;;18.62;68.41;101249.19;4940235;28;45264;-49
2021/06/26 02:24:26;;;;;;;;;11.50;10.25;;;;;18.62;68.38;101249.19;4941724;28;45354;-53
2021/06/26 02:26:52;;;;;;;;;11.50;10.00;;;;;18.57;68.34;101229.00;4941057;28;45335;-53
2021/06/26 02:29:17;;;;;;;;;11.25;9.75;;;;;18.63;68.44;101236.75;4941660;28;45329;-53
2021/06/26 02:31:42;;;;;;;;;10.00;9.00;;;;;18.64;68.29;101241.13;4941205;28;45317;-51
2021/06/26 02:34:12;;;;;;;;;9.75;9.50;;;;;18.64;68.20;101249.09;4940325;28;45328;-53
2021/06/26 02:36:38;;;;;;;;;12.25;10.00;;;;;18.64;68.18;101250.00;4941303;28;45254;-55
2021/06/26 02:39:03;;;;;;;;;7.50;7.50;;;;;18.65;68.01;101248.19;4952951;28;47269;-53
2021/06/26 02:41:29;;;;;;;;;8.50;8.00;;;;;18.65;68.47;101243.75;4938893;28;45299;-49
2021/06/26 02:43:54;;;;;;;;;12.50;10.50;;;;;18.65;68.51;101240.19;4941478;28;45302;-52
2021/06/26 02:46:19;;;;;;;;;11.75;8.75;;;;;18.65;68.11;101243.75;4941257;28;45525;-53
2021/06/26 02:48:45;;;;;;;;;10.00;9.25;;;;;18.65;68.13;101240.19;4941112;28;46055;-52
2021/06/26 02:51:10;;;;;;;;;12.75;11.50;;;;;18.57;68.39;101227.19;4941217;28;46612;-52
2021/06/26 02:53:36;;;;;;;;;10.50;9.25;;;;;18.64;68.19;101230.47;4941512;28;45243;-52
2021/06/26 02:56:01;;;;;;;;;10.25;10.25;;;;;18.65;68.22;101234.88;4941217;28;45460;-52
2021/06/26 02:58:26;;;;;;;;;14.50;8.75;;;;;18.64;68.44;101236.69;4940921;28;45273;-53
2021/06/26 03:00:52;;;;;;;;;12.25;11.75;;;;;18.63;67.77;101234.09;4929833;28;45337;-53
2021/06/26 03:03:17;;;;;;;;;12.75;10.75;;;;;18.63;68.03;101237.59;4944784;28;45326;-52
2021/06/26 03:05:43;;;;;;;;;10.75;9.25;;;;;18.63;68.04;101239.41;4944417;28;45358;-52
2021/06/26 03:08:09;;;;;;;;;16.25;13.25;;;;;18.63;67.96;101234.94;4944060;28;46075;-54
2021/06/26 03:10:34;;;;;;;;;16.75;13.75;;;;;18.62;68.00;101235.00;4944357;28;45437;-53
2021/06/26 03:12:59;;;;;;;;;12.75;10.75;;;;;18.62;67.87;101235.00;4944148;28;45218;-53
2021/06/26 03:15:25;;;;;;;;;15.75;14.00;;;;;18.62;67.72;101235.00;4944189;28;45386;-53
2021/06/26 03:17:50;;;;;;;;;13.75;12.75;;;;;18.61;67.86;101235.94;4944384;28;45249;-54
2021/06/26 03:20:15;;;;;;;;;16.75;14.00;;;;;18.60;67.90;101243.06;4944186;28;45448;-53
2021/06/26 03:22:41;;;;;;;;;13.25;11.75;;;;;18.58;68.15;101239.59;4944366;28;45357;-53
2021/06/26 03:25:09;;;;;;;;;16.00;13.25;;;;;18.58;68.15;101244.03;4959140;28;46068;-52
2021/06/26 03:27:36;;;;;;;;;16.50;14.00;;;;;18.57;67.88;101237.00;4943543;28;46176;-53
2021/06/26 03:30:01;;;;;;;;;14.50;11.75;;;;;18.59;67.75;101238.66;4943784;28;45314;-54
2021/06/26 03:32:26;;;;;;;;;13.50;12.25;;;;;18.58;67.92;101236.03;4943867;28;45441;-53
2021/06/26 03:34:52;;;;;;;;;20.25;15.25;;;;;18.56;67.59;101240.56;4940275;28;45456;-53
2021/06/26 03:37:17;;;;;;;;;16.50;14.00;;;;;18.59;67.71;101243.09;4958798;28;45934;-51
2021/06/26 03:39:42;;;;;;;;;14.00;12.75;;;;;18.55;68.06;101236.19;4943942;28;45374;-52
2021/06/26 03:42:09;;;;;;;;;13.25;11.00;;;;;18.56;67.75;101237.91;4943825;28;45306;-52
2021/06/26 03:44:35;;;;;;;;;17.00;12.25;;;;;18.55;68.01;101234.38;4943848;28;45420;-54
2021/06/26 03:47:01;;;;;;;;;13.50;13.50;;;;;18.57;67.68;101245.84;4943614;28;46298;-50
2021/06/26 03:49:30;;;;;;;;;12.75;12.25;;;;;18.56;67.96;101238.78;4943859;28;45275;-54
2021/06/26 03:51:55;;;;;;;;;11.00;8.00;;;;;18.55;68.12;101237.03;4943927;28;45311;-54
2021/06/26 03:54:20;;;;;;;;;10.00;10.00;;;;;18.57;67.86;101242.31;4943702;28;45234;-53
2021/06/26 03:56:46;;;;;;;;;9.75;9.75;;;;;18.56;68.36;101249.41;4943337;28;45380;-52
2021/06/26 03:59:11;;;;;;;;;14.50;11.50;;;;;18.55;67.53;101244.16;4942442;28;45219;-52
2021/06/26 04:01:37;;;;;;;;;11.50;10.00;;;;;18.55;67.97;101241.50;4932212;28;45408;-54
2021/06/26 04:04:02;;;;;;;;;7.50;7.50;;;;;18.52;67.70;101238.03;4942211;28;45467;-53
2021/06/26 04:06:28;;;;;;;;;14.75;14.00;;;;;18.53;67.43;101236.25;4943321;28;45442;-53
2021/06/26 04:08:53;;;;;;;;;12.00;10.75;;;;;18.51;67.74;101243.41;4942088;28;45332;-52
2021/06/26 04:11:18;;;;;;;;;12.00;12.00;;;;;18.51;67.70;101246.06;4957874;28;45275;-53
2021/06/26 04:13:44;;;;;;;;;11.25;10.50;;;;;18.51;67.62;101248.72;4941490;28;45251;-51
2021/06/26 04:16:09;;;;;;;;;8.25;8.25;;;;;18.51;67.91;101240.75;4943685;28;45300;-52
2021/06/26 04:18:34;;;;;;;;;11.00;10.00;;;;;18.49;67.58;101248.81;4943336;28;45306;-52
2021/06/26 04:21:00;;;;;;;;;13.50;12.00;;;;;18.48;67.62;101252.38;4943569;28;45400;-49
2021/06/26 04:23:25;;;;;;;;;10.00;8.00;;;;;18.46;67.56;101240.06;4943340;28;45272;-53
2021/06/26 04:25:51;;;;;;;;;11.75;11.00;;;;;18.45;67.73;101251.63;4943499;28;45326;-52
2021/06/26 04:28:17;;;;;;;;;14.00;12.75;;;;;18.42;67.92;101249.97;4946612;28;45366;-52
2021/06/26 04:30:42;;;;;;;;;11.25;9.75;;;;;18.41;67.75;101253.53;4943335;28;45254;-52
2021/06/26 04:33:09;;;;;;;;;13.00;10.25;;;;;18.40;68.01;101250.94;4943212;28;45452;-51
2021/06/26 04:35:34;;;;;;;;;9.75;8.50;;;;;18.35;67.94;101240.47;4943123;28;46049;-53
2021/06/26 04:37:59;;;;;;;;;6.50;6.50;;;;;18.36;67.77;101250.19;4942986;28;45191;-53
2021/06/26 04:40:25;;;;;;;;;8.00;8.00;;;;;18.34;67.94;101244.94;4943525;28;45299;-53
2021/06/26 04:42:52;;;;;;;;;6.50;6.50;;;;;18.34;68.04;101244.09;4941748;28;45344;-53
2021/06/26 04:45:18;;;;;;;;;7.00;7.00;;;;;18.33;67.95;101248.53;4943141;28;45433;-54
2021/06/26 04:47:45;;;;;;;;;8.75;8.75;;;;;18.30;68.00;101246.00;4957739;28;45341;-53
2021/06/26 04:50:12;;;;;;;;;13.50;12.50;;;;;18.29;67.91;101254.91;4941996;28;45354;-53
2021/06/26 04:52:40;;;;;;;;;6.50;6.00;;;;;18.31;67.85;101254.84;4942950;28;45198;-51
2021/06/26 04:55:06;;;;;;;;;11.00;9.75;;;;;18.30;68.04;101250.44;4942653;28;45910;-52
2021/06/26 04:57:31;;;;;;;;;7.25;7.25;;;;;18.32;67.70;101251.25;4941380;28;45226;-53
2021/06/26 04:59:57;;;;;;;;;5.00;5.00;;;;;18.33;67.89;101258.31;4947421;28;45901;-53
2021/06/26 05:02:23;;;;;;;;;7.75;6.25;;;;;18.32;67.59;101256.56;4950755;28;45742;-53
2021/06/26 05:04:48;;;;;;;;;7.75;7.00;;;;;18.33;67.74;101259.16;4949547;28;47224;-53
2021/06/26 05:07:13;;;;;;;;;8.75;7.00;;;;;18.32;68.00;101256.56;4943033;28;45330;-53
2021/06/26 05:09:39;;;;;;;;;10.50;8.50;;;;;18.29;67.79;101248.72;4953700;28;45312;-53
2021/06/26 05:12:07;;;;;;;;;10.50;7.75;;;;;18.30;67.82;101250.44;4953283;28;45444;-53
2021/06/26 05:14:32;;;;;;;;;7.50;6.50;;;;;18.28;68.04;101254.97;4942646;28;46356;-54
2021/06/26 05:16:58;;;;;;;;;7.50;7.00;;;;;18.30;67.77;101253.09;4957269;28;45374;-51
2021/06/26 05:19:23;;;;;;;;;10.25;8.00;;;;;18.28;67.81;101255.81;4942728;28;45223;-53
2021/06/26 05:21:49;;;;;;;;;9.25;8.00;;;;;18.28;67.68;101253.16;4941165;28;45461;-53
2021/06/26 05:24:14;;;;;;;;;8.25;6.75;;;;;18.27;67.77;101248.75;4941481;28;45289;-53
2021/06/26 05:26:40;;;;;;;;;7.25;7.00;;;;;18.28;67.84;101254.97;4942245;28;45281;-53
2021/06/26 05:29:05;;;;;;;;;6.00;6.00;;;;;18.27;67.64;101259.41;4941295;28;45239;-53
2021/06/26 05:31:31;;;;;;;;;6.50;6.00;;;;;18.19;67.53;101243.72;4942179;28;45255;-53
2021/06/26 05:33:56;;;;;;;;;8.25;8.25;;;;;18.24;67.91;101255.97;4957134;28;47228;-54
2021/06/26 05:36:22;;;;;;;;;7.75;7.75;;;;;18.24;67.88;101251.53;4942317;28;45398;-52
2021/06/26 05:38:47;;;;;;;;;7.00;7.00;;;;;18.23;67.90;101259.59;4941230;28;45389;-53
2021/06/26 05:41:13;;;;;;;;;6.00;6.00;;;;;18.23;67.91;101262.25;4942016;28;45494;-50
2021/06/26 05:43:38;;;;;;;;;8.00;6.50;;;;;18.23;67.71;101268.44;4941852;28;46008;-53
2021/06/26 05:46:04;;;;;;;;;5.50;5.25;;;;;18.23;67.99;101265.78;4942163;28;45441;-54
2021/06/26 05:48:29;;;;;;;;;7.00;7.00;;;;;18.24;67.71;101275.50;4956834;28;45317;-50
2021/06/26 05:50:55;;;;;;;;;9.25;8.75;;;;;18.23;67.68;101276.41;4942012;28;45413;-52
2021/06/26 05:53:20;;;;;;;;;7.75;6.00;;;;;18.25;67.77;101276.34;4941803;28;46114;-53
2021/06/26 05:55:56;;;;;;;;;5.75;5.75;;;;;18.24;67.74;101270.16;4942048;28;45322;-51
2021/06/26 05:58:23;;;;;;;;;5.25;5.25;;;;;18.27;67.75;101271.84;4928216;28;45521;-52
2021/06/26 06:00:49;;;;;;;;;6.50;6.50;;;;;18.28;68.02;101273.59;4941901;28;45462;-53
2021/06/26 06:03:14;;;;;;;;;8.75;6.75;;;;;18.27;67.69;101270.03;4941723;28;45427;-51
2021/06/26 06:05:40;;;;;;;;;10.00;7.00;;;;;18.28;67.71;101276.25;4940841;28;45479;-53
2021/06/26 06:08:05;;;;;;;;;6.00;5.50;;;;;18.28;67.72;101273.59;4941872;28;45227;-51
2021/06/26 06:10:31;;;;;;;;;7.50;6.00;;;;;18.30;67.91;101279.69;4940847;28;45352;-52
2021/06/26 06:12:56;;;;;;;;;6.50;6.50;;;;;18.29;67.88;101275.31;4941238;28;45666;-52
2021/06/26 06:15:21;;;;;;;;;7.25;6.50;;;;;18.28;67.85;101270.94;4941956;28;45483;-48
2021/06/26 06:17:47;;;;;;;;;5.25;5.25;;;;;18.31;67.90;101278.78;4956651;28;45306;-52
2021/06/26 06:20:12;;;;;;;;;5.25;5.00;;;;;18.32;68.00;101280.50;4941778;28;45524;-56
2021/06/26 06:22:38;;;;;;;;;6.00;6.00;;;;;18.32;67.89;101268.06;4941629;28;46070;-54
2021/06/26 06:25:06;;;;;;;;;4.00;4.00;;;;;18.34;68.10;101279.53;4941695;28;45249;-55
2021/06/26 06:27:32;;;;;;;;;6.00;5.75;;;;;18.34;67.99;101274.22;4956144;28;45355;-52
2021/06/26 06:29:57;;;;;;;;;6.25;6.00;;;;;18.36;68.03;101274.13;4941579;28;45226;-51
2021/06/26 06:32:22;;;;;;;;;7.75;6.50;;;;;18.39;68.11;101273.16;4941583;28;45211;-51
2021/06/26 06:34:48;;;;;;;;;8.50;6.00;;;;;18.40;67.96;101277.56;4956737;28;45235;-50
2021/06/26 06:37:14;;;;;;;;;9.00;6.25;;;;;18.38;67.91;101280.28;4944986;28;45235;-52
2021/06/26 06:39:39;;;;;;;;;5.50;5.00;;;;;18.43;68.09;101278.31;4945240;28;45245;-50
2021/06/26 06:42:05;;;;;;;;;6.50;5.75;;;;;18.44;68.10;101280.03;4944543;28;45463;-48
2021/06/26 06:44:30;;;;;;;;;7.50;6.25;;;;;18.46;67.77;101275.50;4945270;28;45223;-55
2021/06/26 06:46:55;;;;;;;;;5.75;5.75;;;;;18.46;67.90;101269.34;4944894;28;45143;-52
2021/06/26 06:49:20;;;;;;;;;6.00;5.75;;;;;18.49;68.11;101267.44;4943647;28;45255;-49
2021/06/26 06:51:46;;;;;;;;;5.75;5.75;;;;;18.51;68.04;101268.25;4944759;28;46090;-49
2021/06/26 06:54:11;;;;;;;;;4.00;4.00;;;;;18.54;68.09;101269.03;4944756;28;45243;-50
2021/06/26 06:56:37;;;;;;;;;6.00;6.00;;;;;18.55;67.97;101273.44;4944515;28;45907;-51
2021/06/26 06:59:02;;;;;;;;;7.00;7.00;;;;;18.57;67.88;101271.59;4944852;28;45490;-52
2021/06/26 07:01:28;;;;;;;;;6.25;5.50;;;;;18.58;68.11;101282.16;4944519;28;47522;-51
2021/06/26 07:03:53;;;;;;;;;5.00;5.00;;;;;18.59;67.90;101288.34;4944501;28;45334;-51
2021/06/26 07:06:19;;;;;;;;;7.00;6.50;;;;;18.63;67.56;101289.97;4944592;28;45521;-50
2021/06/26 07:08:44;;;;;;;;;6.50;5.75;;;;;18.64;67.72;101286.38;4944519;28;45463;-48
2021/06/26 07:11:09;;;;;;;;;6.25;6.25;;;;;18.63;67.37;101285.50;4943075;28;45518;-49
2021/06/26 07:13:35;;;;;;;;;6.00;6.00;;;;;18.67;67.98;101284.47;4944314;28;45373;-53
2021/06/26 07:16:00;;;;;;;;;9.00;9.00;;;;;18.68;67.86;101286.19;4945943;28;45410;-49
2021/06/26 07:18:26;;;;;;;;;5.00;5.00;;;;;18.71;67.99;101282.53;4944235;28;45361;-49
2021/06/26 07:20:52;;;;;;;;;7.75;5.50;;;;;18.73;67.97;101288.69;4944218;28;46325;-50
2021/06/26 07:23:17;;;;;;;;;6.00;6.00;;;;;18.75;67.64;101292.13;4958938;28;45262;-60
2021/06/26 07:25:42;;;;;;;;;7.00;7.00;;;;;18.77;67.68;101295.63;4938305;28;45571;-62
2021/06/26 07:28:08;;;;;;;;;6.00;5.00;;;;;18.80;67.35;101290.19;4936565;28;45505;-63
2021/06/26 07:30:33;;;;;;;;;7.25;6.50;;;;;18.84;67.20;101298.88;4943722;28;46110;-63
2021/06/26 07:32:58;;;;;;;;;8.00;6.50;;;;;18.84;67.76;101297.09;4938261;28;45548;-61
2021/06/26 07:35:24;;;;;;;;;5.25;4.75;;;;;18.81;67.78;101299.88;4942802;28;45236;-60
2021/06/26 07:37:49;;;;;;;;;7.75;7.25;;;;;18.81;67.88;101302.53;4941265;28;45451;-51
2021/06/26 07:40:16;;;;;;;;;8.00;6.75;;;;;18.81;67.57;101299.03;4943393;28;45421;-47
2021/06/26 07:42:42;;;;;;;;;6.50;6.25;;;;;18.80;67.66;101303.50;4941953;28;45282;-49
2021/06/26 07:45:09;;;;;;;;;8.00;7.50;;;;;18.81;67.61;101302.53;4950705;28;45489;-50
2021/06/26 07:47:35;;;;;;;;;8.00;7.25;;;;;18.83;67.69;101300.69;4942576;28;45551;-51
2021/06/26 07:50:00;;;;;;;;;9.25;9.25;;;;;18.81;67.44;101297.22;4943393;28;46250;-48
2021/06/26 07:52:26;;;;;;;;;9.00;5.75;;;;;18.84;67.79;101301.53;4943595;28;45459;-49
2021/06/26 07:54:51;;;;;;;;;6.50;6.50;;;;;18.87;67.60;101305.88;4943521;28;45350;-52
2021/06/26 07:57:17;;;;;;;;;6.00;6.00;;;;;18.88;67.42;101297.84;4943198;28;45502;-50
2021/06/26 07:59:42;;;;;;;;;7.00;5.25;;;;;18.91;67.48;101302.22;4942161;28;45999;-47
2021/06/26 08:02:07;;;;;;;;;7.50;7.00;;;;;18.91;67.44;101292.44;4943046;28;45488;-52
2021/06/26 08:04:33;;;;;;;;;6.00;5.25;;;;;18.93;67.70;101289.69;4943317;28;45359;-50
2021/06/26 08:06:58;;;;;;;;;5.00;5.00;;;;;18.96;67.34;101297.56;4943286;28;45403;-50
2021/06/26 08:09:23;;;;;;;;;6.00;6.00;;;;;18.98;67.39;101287.72;4942729;28;46307;-51
2021/06/26 08:11:49;;;;;;;;;9.50;8.00;;;;;19.00;67.56;101291.19;4943094;28;45501;-49
2021/06/26 08:14:14;;;;;;;;;9.25;7.00;;;;;19.02;67.10;101280.47;4943399;28;45158;-61
2021/06/26 08:16:39;;;;;;;;;8.00;8.00;;;;;19.05;67.24;101273.22;4946906;28;45352;-59
2021/06/26 08:19:05;;;;;;;;;9.75;6.75;;;;;19.07;67.49;101273.16;4942397;28;46016;-58
2021/06/26 08:21:30;;;;;;;;;7.75;7.75;;;;;19.11;67.05;101280.97;4943169;28;45357;-58
2021/06/26 08:23:56;;;;;;;;;8.25;8.25;;;;;19.10;66.97;101278.38;4957689;28;45370;-62
2021/06/26 08:26:22;;;;;;;;;10.25;9.00;;;;;19.13;67.24;101280.88;4934903;28;45495;-61
2021/06/26 08:28:47;;;;;;;;;9.00;9.00;;;;;19.17;67.29;101274.53;4943213;28;47650;-62
2021/06/26 08:31:13;;;;;;;;;9.50;7.75;;;;;19.20;67.39;101273.53;4942723;28;45468;-55
2021/06/26 08:33:38;;;;;;;;;11.75;8.25;;;;;19.23;67.36;101260.06;4957683;28;45333;-53
2021/06/26 08:36:04;;;;;;;;;11.25;11.25;;;;;19.24;67.45;101262.66;4942982;28;45521;-53
2021/06/26 08:38:29;;;;;;;;;10.50;10.00;;;;;19.28;67.36;101274.06;4942761;28;45410;-53
2021/06/26 08:40:55;;;;;;;;;15.50;12.25;;;;;19.32;67.65;101273.00;4942500;28;45359;-54
2021/06/26 08:43:21;;;;;;;;;9.50;9.25;;;;;19.37;67.39;101283.44;4941337;28;45623;-54
2021/06/26 08:45:47;;;;;;;;;6.25;5.00;;;;;19.40;67.10;101283.34;4942759;28;45250;-54
2021/06/26 08:48:12;;;;;;;;;6.50;6.50;;;;;19.43;66.97;101281.41;4942665;28;45324;-54
2021/06/26 08:50:39;;;;;;;;;4.50;4.50;;;;;19.48;66.86;101284.75;4942701;28;45242;-53
2021/06/26 08:53:04;;;;;;;;;5.00;5.00;;;;;19.49;67.35;101283.78;4939850;28;45580;-54
2021/06/26 08:55:30;;;;;;;;;8.25;8.00;;;;;19.55;67.44;101285.34;4949678;28;45378;-55
2021/06/26 08:57:55;;;;;;;;;9.00;8.00;;;;;19.59;67.56;101283.41;4941658;28;45789;-55
2021/06/26 09:00:26;;;;;;;;;7.25;6.00;;;;;19.60;67.07;101275.34;4939365;28;45619;-56
2021/06/26 09:03:04;;;;;;;;;7.00;7.00;;;;;19.64;67.62;101276.94;4942058;28;45432;-55
2021/06/26 09:05:30;;;;;;;;;7.25;6.00;;;;;19.71;67.26;101276.66;4942591;28;45465;-55
2021/06/26 09:08:07;;;;;;;;;6.50;6.25;;;;;19.75;67.14;101271.13;4942242;28;46445;-56
2021/06/26 09:10:33;;;;;;;;;6.75;5.50;;;;;19.78;67.03;101265.66;4942140;28;45380;-56
2021/06/26 09:13:16;;;;;;;;;6.00;6.00;;;;;19.84;67.11;101269.88;4942170;28;45346;-52
2021/06/26 09:15:42;;;;;;;;;7.00;3.50;;;;;19.88;67.02;101278.63;4942193;28;45273;-59
2021/06/26 09:18:19;;;;;;;;;4.25;4.25;;;;;19.94;67.12;101283.69;4942334;28;46786;-59
2021/06/26 09:20:53;;;;;;;;;5.00;5.00;;;;;20.00;66.79;101280.75;4942042;28;45453;-52
2021/06/26 09:23:37;;;;;;;;;7.00;6.75;;;;;20.04;66.44;101269.00;4942441;28;45341;-54
2021/06/26 09:26:04;;;;;;;;;6.00;6.00;;;;;20.11;66.49;101267.78;4934127;28;45354;-51
2021/06/26 09:28:30;;;;;;;;;5.50;5.50;;;;;20.16;66.33;101256.88;4937920;28;46350;-48
2021/06/26 09:30:55;;;;;;;;;8.00;7.50;;;;;20.24;66.27;101262.72;4941949;28;45388;-55
2021/06/26 09:33:24;;;;;;;;;9.50;7.50;;;;;20.32;66.60;101262.38;4956698;28;45588;-52
2021/06/26 09:36:01;;;;;;;;;7.50;6.50;;;;;20.40;66.09;101264.69;4941036;28;46116;-59
2021/06/26 09:38:27;;;;;;;;;7.50;6.00;;;;;20.47;66.71;101258.13;4941900;28;46188;-60
2021/06/26 09:40:52;;;;;;;;;7.00;7.00;;;;;20.56;66.93;101255.00;4941756;28;45606;-62
2021/06/26 09:43:28;;;;;;;;;8.25;7.75;;;;;20.69;66.09;101249.94;4940349;28;45402;-58
2021/06/26 09:46:15;;;;;;;;;9.25;9.25;;;;;20.78;66.85;101252.19;4941982;28;45458;-52
2021/06/26 09:48:46;;;;;;;;;10.25;7.75;;;;;20.89;66.70;101257.00;4931430;28;46152;-51
2021/06/26 09:51:26;;;;;;;;;10.75;9.00;;;;;20.99;66.37;101257.41;4941842;28;45565;-52
2021/06/26 09:53:58;;;;;;;;;8.75;8.75;;;;;21.11;66.40;101261.28;4941923;28;45391;-63
2021/06/26 09:56:34;;;;;;;;;7.75;6.75;;;;;21.21;66.09;101272.38;4941411;28;45382;-61
2021/06/26 09:59:01;;;;;;;;;5.50;5.50;;;;;21.27;66.19;101275.59;4939354;28;45455;-65
2021/06/26 10:01:27;;;;;;;;;9.50;9.50;;;;;21.34;65.39;101280.63;4941795;28;45346;-64
2021/06/26 10:03:52;;;;;;;;;6.25;6.00;;;;;21.41;64.49;101274.03;4941924;28;45195;-63
2021/06/26 10:06:20;;;;;;;;;7.75;7.50;;;;;21.49;65.03;101282.50;4941868;28;45231;-67
2021/06/26 10:08:45;;;;;;;;;8.25;8.25;;;;;21.54;64.62;101277.78;4941183;28;46648;-66
2021/06/26 10:11:11;;;;;;;;;14.50;13.25;;;;;21.56;64.70;101280.44;4940745;28;45164;-70
2021/06/26 10:13:37;;;;;;;;;9.50;9.50;;;;;21.65;64.23;101279.94;4941644;28;45372;-60
2021/06/26 10:16:03;;;;;;;;;13.50;9.50;;;;;21.71;63.87;101270.72;4941396;28;45571;-60
2021/06/26 10:18:29;;;;;;;;;10.75;9.00;;;;;21.75;64.38;101278.50;4941578;28;45477;-65
2021/06/26 10:20:56;;;;;;;;;10.75;9.25;;;;;21.76;63.61;101274.03;4941507;28;45397;-63
2021/06/26 10:23:22;;;;;;;;;10.75;10.75;;;;;21.78;63.71;101272.13;4941630;28;45393;-69
2021/06/26 10:25:48;;;;;;;;;11.00;11.00;;;;;21.84;63.72;101278.97;4955905;28;45582;-71
2021/06/26 10:28:16;;;;;;;;;11.00;11.00;;;;;21.92;63.74;101276.75;4952910;28;47253;-60
2021/06/26 10:30:43;;;;;;;;;10.50;10.50;;;;;21.97;63.71;101269.31;4941070;28;45455;-67
2021/06/26 10:33:10;;;;;;;;;9.50;8.75;;;;;22.00;64.00;101266.50;4941038;28;45381;-62
2021/06/26 10:35:38;;;;;;;;;13.25;11.00;;;;;22.07;64.02;101267.91;4941199;28;45403;-63
2021/06/26 10:38:12;;;;;;;;;11.00;9.50;;;;;22.14;63.77;101268.44;4941144;28;45355;-66
2021/06/26 10:40:39;;;;;;;;;12.00;10.75;;;;;22.22;63.71;101271.53;4941025;28;45390;-63
2021/06/26 10:43:24;;;;;;;;;12.75;11.25;;;;;22.33;63.89;101267.41;4940899;28;45581;-64
2021/06/26 10:45:51;;;;;;;;;14.00;13.00;;;;;22.38;63.45;101266.22;4941042;28;45334;-57
2021/06/26 10:48:22;;;;;;;;;12.25;10.50;;;;;22.44;63.31;101262.38;4940699;28;45290;-56
2021/06/26 10:50:54;;;;;;;;;13.75;12.00;;;;;22.51;63.23;101269.06;4941116;28;45276;-63
2021/06/26 10:53:30;;;;;;;;;13.00;11.75;;;;;22.55;63.00;101253.72;4930004;28;45345;-67
2021/06/26 10:56:16;;;;;;;;;13.00;11.75;;;;;22.66;63.42;101263.81;4955669;28;45816;-61
2021/06/26 10:58:44;;;;;;;;;14.00;13.50;;;;;22.70;63.46;101265.38;4940460;28;47257;-69
2021/06/26 11:01:18;;;;;;;;;12.00;11.00;;;;;22.80;63.24;101260.34;4940737;28;45344;-64
2021/06/26 11:03:45;;;;;;;;;11.25;10.75;;;;;22.86;63.06;101276.06;4941071;28;45256;-63
2021/06/26 11:06:27;;;;;;;;;14.25;13.50;;;;;22.90;62.78;101261.53;4927891;28;45214;-63
2021/06/26 11:09:13;;;;;;;;;10.25;10.25;;;;;22.93;62.67;101263.19;4938961;28;47406;-59
2021/06/26 11:11:42;;;;;;;;;10.50;10.50;;;;;22.97;62.91;101268.28;4940530;28;45164;-60
2021/06/26 11:14:13;;;;;;;;;12.75;11.75;;;;;22.95;62.62;101254.09;4940835;28;45435;-63
2021/06/26 11:16:45;;;;;;;;;11.00;11.00;;;;;23.01;62.57;101258.25;4940576;28;45444;-65